createdAt,value
2023-03-16T00:06:38.388Z,6.37
2023-03-16T00:26:38.515Z,6.18
2023-03-16T00:46:38.343Z,6.31
2023-03-16T01:06:38.357Z,6.31
2023-03-16T02:06:38.334Z,6.25
2023-03-16T02:26:38.587Z,6.25
2023-03-16T02:46:38.332Z,6.25
2023-03-16T03:06:38.316Z,6.18
2023-03-16T03:26:38.357Z,6.25
2023-03-16T03:46:45.316Z,6.25
2023-03-16T04:06:38.290Z,6.25
2023-03-16T04:26:38.291Z,6.12
2023-03-16T04:46:38.276Z,6.12
2023-03-16T05:06:38.296Z,6.12
2023-03-16T05:26:38.268Z,6.25
2023-03-16T05:46:38.278Z,6.25
2023-03-16T06:06:38.271Z,6.18
2023-03-16T06:26:38.291Z,6.25
2023-03-16T07:06:38.327Z,6.06
2023-03-16T07:26:38.243Z,6.18
2023-03-16T07:46:38.241Z,6.12
2023-03-16T08:06:38.246Z,6.25
2023-03-16T08:26:38.251Z,6.12
2023-03-16T08:46:38.299Z,6.25
2023-03-16T09:06:38.216Z,6.37
2023-03-16T09:26:38.211Z,6.43
2023-03-16T09:46:38.311Z,6.31
2023-03-16T10:06:38.187Z,6.50
2023-03-16T10:26:38.375Z,6.50
2023-03-16T10:46:38.252Z,6.43
2023-03-16T11:06:38.388Z,6.43
2023-03-16T11:26:38.141Z,6.62
2023-03-16T11:46:38.309Z,6.56
2023-03-16T12:06:38.202Z,6.68
2023-03-16T12:26:38.086Z,6.56
2023-03-16T12:46:38.082Z,6.68
2023-03-16T13:06:38.062Z,7.00
2023-03-16T13:26:38.063Z,7.06
2023-03-16T13:46:38.030Z,6.87
2023-03-16T14:06:38.070Z,7.00
2023-03-16T14:26:38.006Z,7.06
2023-03-16T14:46:37.958Z,7.18
2023-03-16T15:06:38.011Z,7.12
2023-03-16T15:26:37.941Z,7.12
2023-03-16T15:46:37.914Z,7.00
2023-03-16T16:06:38.023Z,7.12
2023-03-16T16:26:37.876Z,7.12
2023-03-16T16:46:37.973Z,7.12
2023-03-16T17:06:37.875Z,6.93
2023-03-16T17:26:37.835Z,6.93
2023-03-16T17:46:37.828Z,6.81
2023-03-16T18:06:37.812Z,6.75
2023-03-16T18:26:37.793Z,6.87
2023-03-16T18:46:37.780Z,6.87
2023-03-16T19:06:37.802Z,6.87
2023-03-16T19:26:37.759Z,6.68
2023-03-16T19:46:37.944Z,6.75
2023-03-16T20:06:37.730Z,6.81
2023-03-16T20:26:37.814Z,6.68
2023-03-16T20:46:37.716Z,6.81
2023-03-16T21:06:37.717Z,6.75
2023-03-16T21:26:37.690Z,6.62
2023-03-16T21:46:37.689Z,6.62
2023-03-16T22:06:37.647Z,6.62
2023-03-16T22:26:37.655Z,6.62
2023-03-16T22:46:37.652Z,6.43
2023-03-16T23:06:37.632Z,6.68
2023-03-16T23:26:37.714Z,6.68
2023-03-16T23:46:37.613Z,6.62
